createdAt,value
2018-02-12T00:00:07.058Z,4.57
2018-02-12T00:02:37.176Z,3.53
2018-02-12T00:05:07.671Z,3.27
2018-02-12T00:07:37.814Z,2.37
2018-02-12T00:10:08.281Z,3.87
2018-02-12T00:12:38.330Z,4.20
2018-02-12T00:15:10.128Z,3.03
2018-02-12T00:17:40.927Z,3.80
2018-02-12T00:20:11.529Z,4.60
2018-02-12T00:22:41.720Z,3.20
2018-02-12T00:25:11.985Z,2.43
2018-02-12T00:27:41.890Z,3.70
2018-02-12T00:30:12.210Z,3.73
2018-02-12T00:32:42.107Z,4.10
2018-02-12T00:35:12.301Z,4.43
2018-02-12T00:37:42.137Z,3.57
2018-02-12T00:40:12.397Z,4.13
2018-02-12T00:42:42.292Z,4.40
2018-02-12T00:45:12.641Z,3.40
2018-02-12T00:47:42.559Z,4.33
2018-02-12T00:50:12.868Z,4.63
2018-02-12T00:52:42.786Z,4.80
2018-02-12T00:55:12.667Z,3.60
2018-02-12T00:57:42.528Z,3.70
2018-02-12T01:00:12.391Z,3.97
2018-02-12T01:02:42.631Z,4.00
2018-02-12T01:05:12.456Z,4.37
2018-02-12T01:07:42.734Z,4.43
2018-02-12T01:10:12.664Z,4.70
2018-02-12T01:12:42.922Z,4.80
2018-02-12T01:15:12.840Z,4.50
2018-02-12T01:17:43.178Z,4.87
2018-02-12T01:20:13.225Z,6.00
2018-02-12T01:22:44.158Z,4.20
2018-02-12T01:25:14.101Z,5.80
2018-02-12T01:27:44.400Z,3.70
2018-02-12T01:30:14.339Z,5.90
2018-02-12T01:32:44.704Z,5.20
2018-02-12T01:35:14.639Z,6.20
2018-02-12T01:37:44.936Z,4.77
2018-02-12T01:40:14.826Z,6.70
2018-02-12T01:42:44.736Z,6.03
2018-02-12T01:45:14.715Z,7.33
2018-02-12T01:47:44.582Z,5.53
2018-02-12T01:50:19.842Z,5.77
2018-02-12T01:52:49.726Z,6.53
2018-02-12T01:55:19.986Z,6.87
2018-02-12T01:57:49.903Z,5.27
2018-02-12T02:00:20.082Z,7.50
2018-02-12T02:02:50.005Z,6.17
2018-02-12T02:05:20.193Z,6.87
2018-02-12T02:07:50.045Z,6.63
2018-02-12T02:10:20.334Z,6.47
2018-02-12T02:12:50.195Z,7.00
2018-02-12T02:15:20.373Z,7.20
2018-02-12T02:17:50.197Z,7.17
2018-02-12T02:20:20.402Z,5.23
2018-02-12T02:22:50.231Z,7.00
2018-02-12T02:25:20.540Z,7.70
2018-02-12T02:27:50.383Z,7.40
2018-02-12T02:30:20.895Z,6.17
2018-02-12T02:32:50.765Z,7.70
2018-02-12T02:35:21.001Z,7.27
2018-02-12T02:37:50.825Z,7.17
2018-02-12T02:40:20.664Z,9.70
2018-02-12T02:42:50.552Z,9.90
2018-02-12T02:45:20.435Z,9.23
2018-02-12T02:47:50.600Z,8.57
2018-02-12T02:50:20.466Z,6.53
2018-02-12T02:52:50.722Z,9.30
2018-02-12T02:55:20.542Z,6.10
2018-02-12T02:57:50.774Z,7.83
2018-02-12T03:00:20.626Z,9.87
2018-02-12T03:02:50.995Z,7.80
2018-02-12T03:05:20.882Z,9.00
2018-02-12T03:07:50.724Z,7.57
2018-02-12T03:13:44.718Z,6.67
2018-02-12T03:16:16.382Z,6.17
2018-02-12T03:18:46.832Z,8.67
2018-02-12T03:30:05.272Z,10.33
2018-02-12T03:35:31.565Z,7.70
2018-02-12T03:38:02.040Z,10.40
2018-02-12T03:52:37.710Z,11.50
2018-02-12T03:55:07.653Z,8.43
2018-02-12T03:57:38.901Z,11.70
2018-02-12T04:00:08.857Z,11.40
2018-02-12T04:02:39.157Z,12.07
2018-02-12T04:05:09.249Z,11.30
2018-02-12T04:07:40.492Z,11.73
2018-02-12T04:10:10.737Z,10.70
2018-02-12T04:12:46.822Z,9.73
2018-02-12T04:15:18.289Z,6.00
2018-02-12T04:17:49.078Z,9.87
2018-02-12T04:23:28.181Z,7.30
2018-02-12T04:26:03.339Z,9.67
2018-02-12T04:31:09.774Z,7.87
2018-02-12T04:51:42.676Z,8.03
2018-02-12T04:54:13.404Z,6.17
2018-02-12T04:56:43.624Z,6.53
2018-02-12T04:59:13.584Z,5.87
2018-02-12T05:01:44.036Z,8.50
2018-02-12T05:04:14.556Z,6.80
2018-02-12T05:06:44.869Z,7.30
2018-02-12T05:09:14.940Z,5.60
2018-02-12T05:11:45.368Z,7.63
2018-02-12T05:14:26.831Z,7.87
2018-02-12T05:17:13.616Z,4.97
2018-02-12T05:19:45.325Z,7.63
2018-02-12T05:25:07.564Z,4.17
2018-02-12T05:27:39.238Z,5.87
2018-02-12T05:30:16.885Z,6.60
2018-02-12T05:35:35.952Z,7.37
2018-02-12T05:38:06.638Z,4.40
2018-02-12T05:40:36.607Z,6.07
2018-02-12T05:43:07.857Z,6.40
2018-02-12T05:48:44.462Z,6.43
2018-02-12T05:51:14.352Z,4.97
2018-02-12T06:21:48.175Z,3.43
2018-02-12T06:36:35.941Z,4.93
2018-02-12T06:39:05.815Z,4.77
2018-02-12T06:41:36.155Z,4.03
2018-02-12T06:59:33.706Z,3.10
2018-02-12T07:02:03.677Z,3.17
2018-02-12T07:19:15.545Z,2.63
2018-02-12T07:21:45.625Z,3.80
2018-02-12T07:51:59.896Z,3.50
2018-02-12T07:54:30.018Z,4.40
2018-02-12T07:57:00.058Z,4.70
2018-02-12T07:59:30.016Z,3.27
2018-02-12T08:02:00.040Z,3.80
2018-02-12T08:04:31.059Z,3.40
2018-02-12T08:07:00.957Z,4.23
2018-02-12T08:09:31.205Z,2.93
2018-02-12T08:12:02.552Z,3.43
2018-02-12T08:14:33.224Z,4.50
2018-02-12T08:17:03.352Z,4.20
2018-02-12T08:25:31.141Z,4.57
2018-02-12T08:28:01.274Z,3.83
2018-02-12T08:30:32.563Z,2.13
2018-02-12T08:33:02.581Z,3.57
2018-02-12T08:35:34.230Z,2.57
2018-02-12T09:02:25.474Z,3.40
2018-02-12T09:17:22.025Z,2.70
2018-02-12T09:19:52.830Z,2.23
2018-02-12T09:22:23.558Z,3.00
2018-02-12T09:31:06.952Z,3.63
2018-02-12T09:39:38.053Z,4.00
2018-02-12T09:42:09.543Z,4.10
2018-02-12T09:47:40.999Z,3.73
2018-02-12T09:53:16.086Z,3.60
2018-02-12T10:35:46.253Z,3.00
2018-02-12T11:30:27.453Z,2.50
2018-02-12T11:33:36.568Z,1.90
2018-02-12T11:39:13.582Z,2.50
2018-02-12T11:41:43.900Z,3.30
2018-02-12T12:06:52.613Z,3.00
2018-02-12T12:09:22.848Z,2.83
2018-02-12T12:11:52.861Z,2.40
2018-02-12T12:14:23.072Z,3.80
2018-02-12T12:16:53.205Z,2.50
2018-02-12T12:19:23.442Z,2.20
2018-02-12T12:21:53.373Z,2.70
2018-02-12T12:24:23.592Z,2.37
2018-02-12T12:26:53.446Z,2.77
2018-02-12T12:29:24.257Z,2.03
2018-02-12T12:31:54.105Z,2.20
2018-02-12T12:34:24.399Z,2.67
2018-02-12T12:36:54.313Z,2.60
2018-02-12T12:39:24.552Z,2.90
2018-02-12T12:41:54.568Z,2.13
2018-02-12T12:44:24.886Z,1.70
2018-02-12T12:46:54.935Z,2.80
2018-02-12T12:49:25.458Z,3.30
2018-02-12T12:51:57.420Z,3.10
2018-02-12T12:54:29.341Z,2.83
2018-02-12T12:57:03.337Z,2.70
2018-02-12T12:59:35.150Z,2.97
2018-02-12T13:02:05.161Z,2.37
2018-02-12T13:04:35.601Z,3.23
2018-02-12T13:07:05.633Z,2.87
2018-02-12T13:09:35.895Z,1.90
2018-02-12T13:12:12.205Z,3.43
2018-02-12T13:14:42.499Z,1.90
2018-02-12T13:17:13.232Z,2.63
2018-02-12T13:19:43.530Z,1.60
2018-02-12T13:22:13.372Z,3.30
2018-02-12T13:24:45.840Z,2.23
2018-02-12T13:30:26.299Z,2.40
2018-02-12T13:32:57.845Z,1.90
2018-02-12T13:41:22.690Z,4.80
2018-02-12T13:46:29.065Z,3.70
2018-02-12T13:48:59.642Z,1.37
2018-02-12T13:51:29.573Z,2.20
2018-02-12T13:54:10.316Z,1.60
2018-02-12T13:56:40.531Z,1.90
2018-02-12T13:59:10.842Z,2.73
2018-02-12T14:01:41.734Z,1.60
2018-02-12T14:04:12.145Z,2.90
2018-02-12T14:06:42.090Z,1.37
2018-02-12T14:09:12.437Z,1.90
2018-02-12T14:11:42.493Z,1.47
2018-02-12T14:14:12.799Z,1.50
2018-02-12T14:16:44.729Z,1.40
2018-02-12T14:19:15.070Z,2.10
2018-02-12T14:21:45.137Z,1.73
2018-02-12T14:27:21.296Z,1.63
2018-02-12T14:29:51.405Z,1.40
2018-02-12T14:32:21.941Z,2.10
2018-02-12T14:34:51.951Z,1.13
2018-02-12T14:37:22.399Z,1.83
2018-02-12T14:39:52.397Z,1.40
2018-02-12T14:42:22.828Z,1.40
2018-02-12T14:44:53.666Z,1.80
2018-02-12T14:47:25.688Z,1.07
2018-02-12T14:49:55.691Z,0.87
2018-02-12T14:52:40.302Z,1.40
2018-02-12T14:55:10.931Z,1.93
2018-02-12T14:57:41.349Z,1.50
2018-02-12T15:00:11.350Z,1.30
2018-02-12T15:02:45.861Z,1.23
2018-02-12T15:05:19.341Z,2.23
2018-02-12T15:07:54.813Z,1.23
2018-02-12T15:10:24.837Z,0.40
2018-02-12T15:13:03.052Z,1.53
2018-02-12T15:15:34.240Z,1.57
2018-02-12T15:18:06.049Z,1.70
2018-02-12T15:21:05.830Z,1.77
2018-02-12T15:26:40.101Z,1.27
2018-02-12T15:29:11.664Z,1.60
2018-02-12T15:31:42.403Z,0.73
2018-02-12T15:34:12.363Z,1.30
2018-02-12T15:36:43.306Z,1.30
2018-02-12T15:39:13.199Z,0.77
2018-02-12T15:41:43.504Z,2.27
2018-02-12T15:44:13.493Z,1.23
2018-02-12T15:46:44.655Z,1.63
2018-02-12T15:49:14.596Z,1.70
2018-02-12T15:51:45.938Z,1.37
2018-02-12T15:54:15.794Z,1.00
2018-02-12T15:56:45.989Z,1.73
2018-02-12T15:59:15.983Z,1.70
2018-02-12T16:01:46.359Z,1.30
2018-02-12T16:04:16.323Z,1.40
2018-02-12T16:06:46.585Z,2.47
2018-02-12T16:09:16.416Z,1.80
2018-02-12T16:11:46.769Z,1.27
2018-02-12T16:14:16.662Z,1.60
2018-02-12T16:16:46.852Z,1.23
2018-02-12T16:19:16.772Z,1.90
2018-02-12T16:21:49.115Z,1.33
2018-02-12T16:24:19.004Z,0.90
2018-02-12T16:26:49.173Z,1.47
2018-02-12T16:29:19.154Z,1.50
2018-02-12T16:31:49.365Z,2.77
2018-02-12T16:34:19.244Z,1.80
2018-02-12T16:36:49.656Z,1.60
2018-02-12T16:39:20.282Z,1.57
2018-02-12T16:41:50.706Z,1.20
2018-02-12T16:44:20.825Z,1.90
2018-02-12T16:46:52.601Z,2.00
2018-02-12T16:49:22.573Z,1.43
2018-02-12T16:51:52.870Z,1.63
2018-02-12T16:54:22.992Z,1.83
2018-02-12T16:56:53.418Z,1.70
2018-02-12T16:59:23.479Z,1.90
2018-02-12T17:01:54.799Z,2.90
2018-02-12T17:07:06.554Z,1.70
2018-02-12T17:09:36.590Z,1.97
2018-02-12T17:12:06.930Z,2.00
2018-02-12T17:14:36.979Z,3.57
2018-02-12T17:17:07.176Z,3.07
2018-02-12T17:19:37.043Z,2.87
2018-02-12T17:22:07.378Z,2.10
2018-02-12T17:24:37.215Z,2.20
2018-02-12T17:27:07.439Z,3.83
2018-02-12T17:29:37.394Z,2.77
2018-02-12T17:32:08.305Z,2.80
2018-02-12T17:34:38.207Z,2.47
2018-02-12T17:39:48.010Z,2.70
2018-02-12T17:42:19.075Z,2.73
2018-02-12T17:44:49.654Z,3.00
2018-02-12T17:47:20.292Z,3.30
2018-02-12T17:49:50.342Z,3.47
2018-02-12T17:52:20.890Z,3.23
2018-02-12T17:54:51.141Z,3.47
2018-02-12T17:57:21.579Z,2.97
2018-02-12T17:59:51.783Z,3.60
2018-02-12T18:02:23.391Z,3.20
2018-02-12T18:04:53.278Z,3.30
2018-02-12T18:07:23.800Z,3.40
2018-02-12T18:09:54.070Z,2.73
2018-02-12T18:52:56.193Z,4.53
2018-02-12T18:58:06.183Z,3.50
2018-02-12T19:09:35.118Z,5.33
2018-02-12T19:18:21.577Z,4.10
2018-02-12T19:21:03.419Z,4.77
2018-02-12T19:23:56.579Z,4.00
2018-02-12T19:26:33.947Z,3.70
2018-02-12T19:29:09.311Z,3.20
2018-02-12T19:31:39.373Z,2.27
2018-02-12T19:34:13.394Z,3.60
2018-02-12T19:36:49.309Z,3.50
2018-02-12T19:39:25.965Z,3.80
2018-02-12T19:42:01.918Z,4.93
2018-02-12T19:44:41.596Z,4.00
2018-02-12T19:47:18.206Z,4.47
2018-02-12T19:50:10.885Z,4.50
2018-02-12T19:52:49.256Z,3.63
2018-02-12T19:55:32.212Z,3.03
2018-02-12T19:58:07.429Z,3.90
2018-02-12T20:00:38.133Z,3.70
2018-02-12T20:03:14.192Z,3.97
2018-02-12T20:05:51.533Z,4.17
2018-02-12T20:08:22.231Z,3.07
2018-02-12T20:11:31.549Z,4.10
2018-02-12T20:14:07.203Z,3.80
2018-02-12T20:16:37.298Z,2.83
2018-02-12T20:19:11.782Z,2.93
2018-02-12T20:21:42.192Z,4.10
2018-02-12T20:24:12.169Z,3.53
2018-02-12T20:26:43.649Z,3.20
2018-02-12T20:29:13.898Z,3.40
2018-02-12T20:31:44.496Z,2.97
2018-02-12T20:34:16.957Z,3.07
2018-02-12T20:36:50.724Z,3.53
2018-02-12T20:39:21.780Z,4.77
2018-02-12T20:41:52.390Z,3.10
2018-02-12T20:44:29.556Z,4.17
2018-02-12T20:47:01.415Z,3.30
2018-02-12T20:49:40.424Z,3.77
2018-02-12T20:52:11.407Z,3.53
2018-02-12T20:54:41.723Z,3.60
2018-02-12T20:57:13.341Z,3.87
2018-02-12T20:59:44.073Z,3.43
2018-02-12T21:02:15.747Z,3.73
2018-02-12T21:04:46.176Z,3.40
2018-02-12T21:07:18.736Z,3.70
2018-02-12T21:09:49.089Z,3.20
2018-02-12T21:12:23.177Z,3.30
2018-02-12T21:14:54.328Z,3.40
2018-02-12T21:17:28.093Z,2.90
2018-02-12T21:23:12.118Z,3.30
2018-02-12T21:28:45.894Z,3.20
2018-02-12T21:31:38.602Z,3.43
2018-02-12T21:49:15.876Z,3.97
2018-02-12T21:55:00.949Z,4.90
2018-02-12T21:57:31.988Z,4.07
2018-02-12T22:00:03.395Z,4.57
2018-02-12T22:02:37.890Z,4.17
2018-02-12T22:05:09.528Z,4.53
2018-02-12T22:07:40.256Z,5.20
2018-02-12T22:10:12.000Z,4.70
2018-02-12T22:12:45.090Z,4.00
2018-02-12T22:15:16.634Z,4.73
2018-02-12T22:17:48.295Z,4.37
2018-02-12T22:20:25.788Z,4.77
2018-02-12T22:23:03.368Z,5.10
2018-02-12T22:25:42.178Z,5.60
2018-02-12T22:28:14.562Z,5.50
2018-02-12T22:30:58.950Z,5.40
2018-02-12T22:33:32.830Z,5.13
2018-02-12T22:36:05.487Z,4.77
2018-02-12T22:38:38.702Z,4.40
2018-02-12T22:41:10.998Z,5.50
2018-02-12T22:46:18.883Z,5.77
2018-02-12T22:48:50.331Z,4.30
2018-02-12T22:51:20.923Z,5.83
2018-02-12T22:53:51.327Z,6.10
2018-02-12T22:56:21.761Z,5.77
2018-02-12T22:58:51.826Z,5.77
2018-02-12T23:01:23.083Z,6.73
2018-02-12T23:03:53.406Z,6.10
2018-02-12T23:06:23.972Z,5.60
2018-02-12T23:08:54.106Z,5.40
2018-02-12T23:11:24.644Z,6.17
2018-02-12T23:13:54.808Z,7.47
2018-02-12T23:16:25.500Z,5.90
2018-02-12T23:18:55.740Z,6.17
2018-02-12T23:21:26.033Z,4.63
2018-02-12T23:23:55.886Z,6.10
2018-02-12T23:26:26.166Z,7.20
2018-02-12T23:28:56.025Z,7.10
2018-02-12T23:31:26.272Z,6.10
2018-02-12T23:33:56.215Z,7.50
2018-02-12T23:36:26.615Z,8.40
2018-02-12T23:38:56.544Z,6.13
2018-02-12T23:41:26.463Z,6.53
2018-02-12T23:43:56.586Z,8.33
2018-02-12T23:46:26.449Z,7.87
2018-02-12T23:48:56.670Z,7.50
2018-02-12T23:51:26.670Z,7.80
2018-02-12T23:53:56.925Z,7.07
2018-02-12T23:56:26.764Z,8.90
2018-02-12T23:58:56.952Z,8.20
